sensor_id;sensor_type;location;lat;lon;timestamp;P1;durP1;ratioP1;P2;durP2;ratioP2
1300;SDS011;59099;48.806;9.160;2022-11-13T00:01:06;14.30;;;12.53;;
1300;SDS011;59099;48.806;9.160;2022-11-13T00:04:01;16.57;;;13.67;;
1300;SDS011;59099;48.806;9.160;2022-11-13T00:06:45;15.80;;;12.80;;
1300;SDS011;59099;48.806;9.160;2022-11-13T00:09:29;14.63;;;13.10;;
1300;SDS011;59099;48.806;9.160;2022-11-13T00:12:13;14.57;;;12.23;;
1300;SDS011;59099;48.806;9.160;2022-11-13T00:14:58;14.53;;;12.57;;
1300;SDS011;59099;48.806;9.160;2022-11-13T00:17:42;13.87;;;12.40;;
1300;SDS011;59099;48.806;9.160;2022-11-13T00:20:27;15.10;;;12.87;;
1300;SDS011;59099;48.806;9.160;2022-11-13T00:23:11;18.40;;;12.70;;
1300;SDS011;59099;48.806;9.160;2022-11-13T00:29:11;15.80;;;11.83;;
1300;SDS011;59099;48.806;9.160;2022-11-13T00:31:55;16.80;;;13.20;;
1300;SDS011;59099;48.806;9.160;2022-11-13T00:34:39;15.40;;;13.80;;
1300;SDS011;59099;48.806;9.160;2022-11-13T00:37:23;14.50;;;11.93;;
1300;SDS011;59099;48.806;9.160;2022-11-13T00:40:08;14.93;;;12.90;;
1300;SDS011;59099;48.806;9.160;2022-11-13T00:42:54;15.50;;;13.67;;
1300;SDS011;59099;48.806;9.160;2022-11-13T00:45:39;16.63;;;12.50;;
1300;SDS011;59099;48.806;9.160;2022-11-13T00:48:24;16.83;;;12.83;;
1300;SDS011;59099;48.806;9.160;2022-11-13T00:51:09;17.07;;;12.27;;
1300;SDS011;59099;48.806;9.160;2022-11-13T00:53:53;18.90;;;13.20;;
1300;SDS011;59099;48.806;9.160;2022-11-13T00:56:38;13.30;;;11.90;;
1300;SDS011;59099;48.806;9.160;2022-11-13T00:59:22;14.73;;;13.10;;
1300;SDS011;59099;48.806;9.160;2022-11-13T01:02:06;14.87;;;11.93;;
1300;SDS011;59099;48.806;9.160;2022-11-13T01:04:50;14.90;;;12.30;;
1300;SDS011;59099;48.806;9.160;2022-11-13T01:07:35;15.30;;;12.23;;
1300;SDS011;59099;48.806;9.160;2022-11-13T01:10:20;15.43;;;12.57;;
1300;SDS011;59099;48.806;9.160;2022-11-13T01:13:05;15.63;;;13.97;;
1300;SDS011;59099;48.806;9.160;2022-11-13T01:15:50;17.10;;;13.10;;
1300;SDS011;59099;48.806;9.160;2022-11-13T01:18:34;14.63;;;12.70;;
1300;SDS011;59099;48.806;9.160;2022-11-13T01:21:20;14.10;;;11.60;;
1300;SDS011;59099;48.806;9.160;2022-11-13T01:24:07;13.67;;;11.77;;
1300;SDS011;59099;48.806;9.160;2022-11-13T01:26:52;16.70;;;12.27;;
1300;SDS011;59099;48.806;9.160;2022-11-13T01:29:36;14.40;;;11.50;;
1300;SDS011;59099;48.806;9.160;2022-11-13T01:32:20;16.47;;;13.07;;
1300;SDS011;59099;48.806;9.160;2022-11-13T01:35:04;22.17;;;14.93;;
1300;SDS011;59099;48.806;9.160;2022-11-13T01:37:49;21.07;;;14.03;;
1300;SDS011;59099;48.806;9.160;2022-11-13T01:40:33;17.77;;;12.80;;
1300;SDS011;59099;48.806;9.160;2022-11-13T01:51:56;14.30;;;11.33;;
1300;SDS011;59099;48.806;9.160;2022-11-13T01:54:44;14.23;;;12.50;;
1300;SDS011;59099;48.806;9.160;2022-11-13T01:57:31;20.30;;;13.97;;
1300;SDS011;59099;48.806;9.160;2022-11-13T02:00:16;15.30;;;11.77;;
1300;SDS011;59099;48.806;9.160;2022-11-13T02:03:00;17.63;;;12.50;;
1300;SDS011;59099;48.806;9.160;2022-11-13T02:05:44;17.00;;;12.33;;
1300;SDS011;59099;48.806;9.160;2022-11-13T02:08:29;16.57;;;12.23;;
1300;SDS011;59099;48.806;9.160;2022-11-13T02:11:13;19.37;;;14.13;;
1300;SDS011;59099;48.806;9.160;2022-11-13T02:13:57;16.53;;;13.53;;
1300;SDS011;59099;48.806;9.160;2022-11-13T02:16:44;20.53;;;14.27;;
1300;SDS011;59099;48.806;9.160;2022-11-13T02:19:35;22.07;;;12.33;;
1300;SDS011;59099;48.806;9.160;2022-11-13T02:22:26;23.97;;;14.40;;
1300;SDS011;59099;48.806;9.160;2022-11-13T02:25:18;35.63;;;13.90;;
1300;SDS011;59099;48.806;9.160;2022-11-13T02:28:04;23.07;;;11.97;;
1300;SDS011;59099;48.806;9.160;2022-11-13T02:30:48;23.23;;;13.07;;
1300;SDS011;59099;48.806;9.160;2022-11-13T02:33:32;14.60;;;11.73;;
1300;SDS011;59099;48.806;9.160;2022-11-13T02:36:17;14.13;;;11.33;;
1300;SDS011;59099;48.806;9.160;2022-11-13T02:39:06;13.70;;;10.80;;
1300;SDS011;59099;48.806;9.160;2022-11-13T02:41:52;13.80;;;10.83;;
1300;SDS011;59099;48.806;9.160;2022-11-13T02:44:37;14.00;;;12.17;;
1300;SDS011;59099;48.806;9.160;2022-11-13T02:47:22;12.53;;;11.10;;
1300;SDS011;59099;48.806;9.160;2022-11-13T02:50:06;12.67;;;10.80;;
1300;SDS011;59099;48.806;9.160;2022-11-13T02:52:51;14.67;;;11.23;;
1300;SDS011;59099;48.806;9.160;2022-11-13T02:55:36;14.97;;;11.53;;
1300;SDS011;59099;48.806;9.160;2022-11-13T02:58:20;13.07;;;11.30;;
1300;SDS011;59099;48.806;9.160;2022-11-13T03:01:04;12.97;;;10.73;;
1300;SDS011;59099;48.806;9.160;2022-11-13T03:03:49;12.27;;;10.93;;
1300;SDS011;59099;48.806;9.160;2022-11-13T03:06:33;12.30;;;10.37;;
1300;SDS011;59099;48.806;9.160;2022-11-13T03:09:17;12.50;;;9.93;;
1300;SDS011;59099;48.806;9.160;2022-11-13T03:12:02;11.63;;;10.30;;
1300;SDS011;59099;48.806;9.160;2022-11-13T03:14:46;13.73;;;10.80;;
1300;SDS011;59099;48.806;9.160;2022-11-13T03:17:30;13.57;;;11.50;;
1300;SDS011;59099;48.806;9.160;2022-11-13T03:20:15;15.17;;;10.90;;
1300;SDS011;59099;48.806;9.160;2022-11-13T03:23:00;16.07;;;11.80;;
1300;SDS011;59099;48.806;9.160;2022-11-13T03:25:45;18.37;;;14.37;;
1300;SDS011;59099;48.806;9.160;2022-11-13T03:28:29;16.07;;;12.13;;
1300;SDS011;59099;48.806;9.160;2022-11-13T03:31:14;15.00;;;11.90;;
1300;SDS011;59099;48.806;9.160;2022-11-13T03:33:59;15.70;;;12.10;;
1300;SDS011;59099;48.806;9.160;2022-11-13T03:36:44;18.63;;;12.77;;
1300;SDS011;59099;48.806;9.160;2022-11-13T03:39:28;16.43;;;13.27;;
1300;SDS011;59099;48.806;9.160;2022-11-13T03:42:13;18.50;;;12.77;;
1300;SDS011;59099;48.806;9.160;2022-11-13T03:44:58;14.90;;;12.67;;
1300;SDS011;59099;48.806;9.160;2022-11-13T03:47:43;21.40;;;13.97;;
1300;SDS011;59099;48.806;9.160;2022-11-13T03:50:27;22.40;;;17.47;;
1300;SDS011;59099;48.806;9.160;2022-11-13T03:53:12;28.53;;;16.73;;
1300;SDS011;59099;48.806;9.160;2022-11-13T03:55:58;24.13;;;15.60;;
1300;SDS011;59099;48.806;9.160;2022-11-13T03:58:43;19.03;;;14.30;;
1300;SDS011;59099;48.806;9.160;2022-11-13T04:01:27;19.63;;;14.97;;
1300;SDS011;59099;48.806;9.160;2022-11-13T04:04:11;21.43;;;15.20;;
1300;SDS011;59099;48.806;9.160;2022-11-13T04:06:55;21.03;;;14.30;;
1300;SDS011;59099;48.806;9.160;2022-11-13T04:09:39;33.07;;;17.63;;
1300;SDS011;59099;48.806;9.160;2022-11-13T04:12:24;24.50;;;15.80;;
1300;SDS011;59099;48.806;9.160;2022-11-13T04:15:08;21.90;;;14.50;;
1300;SDS011;59099;48.806;9.160;2022-11-13T04:17:53;37.83;;;16.37;;
1300;SDS011;59099;48.806;9.160;2022-11-13T04:20:37;28.30;;;14.80;;
1300;SDS011;59099;48.806;9.160;2022-11-13T04:23:21;27.40;;;15.10;;
1300;SDS011;59099;48.806;9.160;2022-11-13T04:26:05;30.57;;;15.57;;
1300;SDS011;59099;48.806;9.160;2022-11-13T04:28:49;25.83;;;14.67;;
1300;SDS011;59099;48.806;9.160;2022-11-13T04:31:34;22.00;;;14.03;;
1300;SDS011;59099;48.806;9.160;2022-11-13T04:34:18;19.17;;;13.67;;
1300;SDS011;59099;48.806;9.160;2022-11-13T04:37:03;25.13;;;13.57;;
1300;SDS011;59099;48.806;9.160;2022-11-13T04:39:47;22.83;;;14.80;;
1300;SDS011;59099;48.806;9.160;2022-11-13T04:42:32;20.43;;;13.20;;
1300;SDS011;59099;48.806;9.160;2022-11-13T04:45:31;27.40;;;14.63;;
1300;SDS011;59099;48.806;9.160;2022-11-13T04:48:16;20.90;;;14.20;;
1300;SDS011;59099;48.806;9.160;2022-11-13T04:51:01;29.57;;;15.00;;
1300;SDS011;59099;48.806;9.160;2022-11-13T04:53:45;23.23;;;15.80;;
1300;SDS011;59099;48.806;9.160;2022-11-13T04:56:29;33.27;;;14.70;;
1300;SDS011;59099;48.806;9.160;2022-11-13T04:59:13;33.00;;;15.33;;
1300;SDS011;59099;48.806;9.160;2022-11-13T05:01:57;19.57;;;12.67;;
1300;SDS011;59099;48.806;9.160;2022-11-13T05:04:41;23.53;;;13.20;;
1300;SDS011;59099;48.806;9.160;2022-11-13T05:07:26;15.23;;;11.87;;
1300;SDS011;59099;48.806;9.160;2022-11-13T05:10:10;35.97;;;13.87;;
1300;SDS011;59099;48.806;9.160;2022-11-13T05:12:55;22.83;;;13.03;;
1300;SDS011;59099;48.806;9.160;2022-11-13T05:15:39;16.60;;;11.57;;
1300;SDS011;59099;48.806;9.160;2022-11-13T05:18:24;33.47;;;13.87;;
1300;SDS011;59099;48.806;9.160;2022-11-13T05:21:09;14.10;;;11.50;;
1300;SDS011;59099;48.806;9.160;2022-11-13T05:23:53;17.90;;;12.80;;
1300;SDS011;59099;48.806;9.160;2022-11-13T05:26:38;16.57;;;12.67;;
1300;SDS011;59099;48.806;9.160;2022-11-13T05:35:43;15.50;;;12.20;;
1300;SDS011;59099;48.806;9.160;2022-11-13T05:38:28;14.13;;;12.60;;
1300;SDS011;59099;48.806;9.160;2022-11-13T05:41:17;12.07;;;10.87;;
1300;SDS011;59099;48.806;9.160;2022-11-13T05:44:02;12.07;;;10.77;;
1300;SDS011;59099;48.806;9.160;2022-11-13T05:46:47;16.93;;;11.40;;
1300;SDS011;59099;48.806;9.160;2022-11-13T05:49:31;16.90;;;12.00;;
1300;SDS011;59099;48.806;9.160;2022-11-13T05:52:15;13.57;;;12.17;;
1300;SDS011;59099;48.806;9.160;2022-11-13T05:54:59;16.50;;;12.83;;
1300;SDS011;59099;48.806;9.160;2022-11-13T05:57:44;15.30;;;11.70;;
1300;SDS011;59099;48.806;9.160;2022-11-13T06:00:28;17.37;;;12.47;;
1300;SDS011;59099;48.806;9.160;2022-11-13T06:03:12;46.83;;;15.30;;
1300;SDS011;59099;48.806;9.160;2022-11-13T06:05:56;14.83;;;11.90;;
1300;SDS011;59099;48.806;9.160;2022-11-13T06:08:41;12.90;;;11.47;;
1300;SDS011;59099;48.806;9.160;2022-11-13T06:11:28;14.53;;;12.47;;
1300;SDS011;59099;48.806;9.160;2022-11-13T06:14:13;13.97;;;12.30;;
1300;SDS011;59099;48.806;9.160;2022-11-13T06:16:58;20.73;;;13.63;;
1300;SDS011;59099;48.806;9.160;2022-11-13T06:19:42;18.53;;;12.60;;
1300;SDS011;59099;48.806;9.160;2022-11-13T06:22:27;22.40;;;13.27;;
1300;SDS011;59099;48.806;9.160;2022-11-13T06:25:11;17.63;;;13.00;;
1300;SDS011;59099;48.806;9.160;2022-11-13T06:27:56;19.70;;;13.97;;
1300;SDS011;59099;48.806;9.160;2022-11-13T06:30:40;21.03;;;13.13;;
1300;SDS011;59099;48.806;9.160;2022-11-13T06:33:24;18.10;;;12.67;;
1300;SDS011;59099;48.806;9.160;2022-11-13T06:36:29;17.70;;;12.63;;
1300;SDS011;59099;48.806;9.160;2022-11-13T06:39:15;16.40;;;12.10;;
1300;SDS011;59099;48.806;9.160;2022-11-13T06:42:00;12.60;;;11.30;;
1300;SDS011;59099;48.806;9.160;2022-11-13T06:44:44;22.17;;;12.57;;
1300;SDS011;59099;48.806;9.160;2022-11-13T06:47:29;12.50;;;11.20;;
1300;SDS011;59099;48.806;9.160;2022-11-13T06:50:13;15.30;;;12.10;;
1300;SDS011;59099;48.806;9.160;2022-11-13T06:52:58;18.60;;;11.40;;
1300;SDS011;59099;48.806;9.160;2022-11-13T06:55:46;14.23;;;12.80;;
1300;SDS011;59099;48.806;9.160;2022-11-13T06:58:32;14.43;;;11.13;;
1300;SDS011;59099;48.806;9.160;2022-11-13T07:01:18;13.33;;;10.90;;
1300;SDS011;59099;48.806;9.160;2022-11-13T07:04:04;13.23;;;11.83;;
1300;SDS011;59099;48.806;9.160;2022-11-13T07:06:49;12.30;;;10.97;;
1300;SDS011;59099;48.806;9.160;2022-11-13T07:09:34;14.23;;;11.53;;
1300;SDS011;59099;48.806;9.160;2022-11-13T07:12:19;12.57;;;10.97;;
1300;SDS011;59099;48.806;9.160;2022-11-13T07:15:04;11.57;;;10.30;;
1300;SDS011;59099;48.806;9.160;2022-11-13T07:17:49;12.97;;;10.63;;
1300;SDS011;59099;48.806;9.160;2022-11-13T07:20:33;13.97;;;11.90;;
1300;SDS011;59099;48.806;9.160;2022-11-13T07:23:19;11.30;;;9.60;;
1300;SDS011;59099;48.806;9.160;2022-11-13T07:26:03;29.27;;;13.00;;
1300;SDS011;59099;48.806;9.160;2022-11-13T07:28:48;12.77;;;9.27;;
1300;SDS011;59099;48.806;9.160;2022-11-13T07:31:33;12.13;;;10.67;;
1300;SDS011;59099;48.806;9.160;2022-11-13T07:34:17;12.43;;;11.13;;
1300;SDS011;59099;48.806;9.160;2022-11-13T07:37:04;14.60;;;10.73;;
1300;SDS011;59099;48.806;9.160;2022-11-13T07:39:49;12.77;;;10.13;;
1300;SDS011;59099;48.806;9.160;2022-11-13T07:42:33;13.07;;;11.23;;
1300;SDS011;59099;48.806;9.160;2022-11-13T07:45:17;10.43;;;9.43;;
1300;SDS011;59099;48.806;9.160;2022-11-13T07:48:02;11.30;;;10.10;;
1300;SDS011;59099;48.806;9.160;2022-11-13T07:50:47;9.90;;;9.00;;
1300;SDS011;59099;48.806;9.160;2022-11-13T07:53:32;9.30;;;8.40;;
1300;SDS011;59099;48.806;9.160;2022-11-13T07:56:18;9.60;;;8.23;;
1300;SDS011;59099;48.806;9.160;2022-11-13T07:59:03;9.57;;;8.63;;
1300;SDS011;59099;48.806;9.160;2022-11-13T08:01:47;12.80;;;9.83;;
1300;SDS011;59099;48.806;9.160;2022-11-13T08:04:31;11.60;;;9.60;;
1300;SDS011;59099;48.806;9.160;2022-11-13T08:07:15;11.63;;;10.43;;
1300;SDS011;59099;48.806;9.160;2022-11-13T08:09:59;11.43;;;10.40;;
1300;SDS011;59099;48.806;9.160;2022-11-13T08:12:43;11.93;;;10.83;;
1300;SDS011;59099;48.806;9.160;2022-11-13T08:15:29;11.83;;;10.70;;
1300;SDS011;59099;48.806;9.160;2022-11-13T08:18:14;10.87;;;9.77;;
1300;SDS011;59099;48.806;9.160;2022-11-13T08:20:59;11.80;;;10.70;;
1300;SDS011;59099;48.806;9.160;2022-11-13T08:23:47;12.67;;;11.37;;
1300;SDS011;59099;48.806;9.160;2022-11-13T08:26:32;14.37;;;10.97;;
1300;SDS011;59099;48.806;9.160;2022-11-13T08:29:20;14.87;;;10.27;;
1300;SDS011;59099;48.806;9.160;2022-11-13T08:32:04;12.97;;;10.10;;
1300;SDS011;59099;48.806;9.160;2022-11-13T08:34:49;12.27;;;10.97;;
1300;SDS011;59099;48.806;9.160;2022-11-13T08:37:36;27.70;;;11.23;;
1300;SDS011;59099;48.806;9.160;2022-11-13T08:40:20;15.10;;;10.60;;
1300;SDS011;59099;48.806;9.160;2022-11-13T08:43:04;11.33;;;10.13;;
1300;SDS011;59099;48.806;9.160;2022-11-13T08:45:48;11.50;;;10.33;;
1300;SDS011;59099;48.806;9.160;2022-11-13T08:48:32;10.63;;;9.63;;
1300;SDS011;59099;48.806;9.160;2022-11-13T08:51:17;10.13;;;9.17;;
1300;SDS011;59099;48.806;9.160;2022-11-13T08:54:01;13.90;;;10.13;;
1300;SDS011;59099;48.806;9.160;2022-11-13T08:56:46;16.23;;;10.73;;
1300;SDS011;59099;48.806;9.160;2022-11-13T08:59:31;11.97;;;10.87;;
1300;SDS011;59099;48.806;9.160;2022-11-13T09:02:16;10.13;;;8.33;;
1300;SDS011;59099;48.806;9.160;2022-11-13T09:05:04;11.90;;;10.63;;
1300;SDS011;59099;48.806;9.160;2022-11-13T09:07:49;14.47;;;12.97;;
1300;SDS011;59099;48.806;9.160;2022-11-13T09:10:34;25.67;;;12.37;;
1300;SDS011;59099;48.806;9.160;2022-11-13T09:13:18;14.07;;;12.67;;
1300;SDS011;59099;48.806;9.160;2022-11-13T09:16:03;16.00;;;12.70;;
1300;SDS011;59099;48.806;9.160;2022-11-13T09:18:48;10.73;;;9.70;;
1300;SDS011;59099;48.806;9.160;2022-11-13T09:21:33;11.47;;;10.27;;
1300;SDS011;59099;48.806;9.160;2022-11-13T09:24:18;11.53;;;10.43;;
1300;SDS011;59099;48.806;9.160;2022-11-13T09:27:02;12.57;;;11.33;;
1300;SDS011;59099;48.806;9.160;2022-11-13T09:29:46;11.90;;;10.70;;
1300;SDS011;59099;48.806;9.160;2022-11-13T09:32:30;11.90;;;10.67;;
1300;SDS011;59099;48.806;9.160;2022-11-13T09:35:15;12.40;;;11.10;;
1300;SDS011;59099;48.806;9.160;2022-11-13T09:38:03;11.20;;;10.20;;
1300;SDS011;59099;48.806;9.160;2022-11-13T09:41:00;10.97;;;9.73;;
1300;SDS011;59099;48.806;9.160;2022-11-13T09:43:52;11.33;;;9.93;;
1300;SDS011;59099;48.806;9.160;2022-11-13T09:46:39;10.40;;;9.50;;
1300;SDS011;59099;48.806;9.160;2022-11-13T09:49:32;11.23;;;10.23;;
1300;SDS011;59099;48.806;9.160;2022-11-13T09:52:23;10.30;;;9.40;;
1300;SDS011;59099;48.806;9.160;2022-11-13T09:55:16;10.83;;;9.93;;
1300;SDS011;59099;48.806;9.160;2022-11-13T09:58:04;8.70;;;7.90;;
1300;SDS011;59099;48.806;9.160;2022-11-13T10:00:57;9.20;;;8.40;;
1300;SDS011;59099;48.806;9.160;2022-11-13T10:03:44;7.87;;;7.20;;
1300;SDS011;59099;48.806;9.160;2022-11-13T10:12:25;7.97;;;7.27;;
1300;SDS011;59099;48.806;9.160;2022-11-13T10:15:12;7.13;;;6.53;;
1300;SDS011;59099;48.806;9.160;2022-11-13T10:20:55;8.00;;;7.40;;
1300;SDS011;59099;48.806;9.160;2022-11-13T10:23:49;8.30;;;7.70;;
1300;SDS011;59099;48.806;9.160;2022-11-13T10:26:38;7.87;;;7.37;;
1300;SDS011;59099;48.806;9.160;2022-11-13T10:29:22;8.40;;;7.80;;
1300;SDS011;59099;48.806;9.160;2022-11-13T10:32:17;8.43;;;7.73;;
1300;SDS011;59099;48.806;9.160;2022-11-13T10:37:55;7.50;;;6.90;;
1300;SDS011;59099;48.806;9.160;2022-11-13T10:40:45;7.00;;;6.43;;
1300;SDS011;59099;48.806;9.160;2022-11-13T10:43:30;9.10;;;8.40;;
1300;SDS011;59099;48.806;9.160;2022-11-13T10:46:20;8.77;;;8.17;;
1300;SDS011;59099;48.806;9.160;2022-11-13T10:49:25;8.80;;;8.20;;
1300;SDS011;59099;48.806;9.160;2022-11-13T10:52:20;9.20;;;8.50;;
1300;SDS011;59099;48.806;9.160;2022-11-13T10:58:01;8.90;;;8.20;;
1300;SDS011;59099;48.806;9.160;2022-11-13T11:00:47;8.60;;;8.00;;
1300;SDS011;59099;48.806;9.160;2022-11-13T11:03:32;8.23;;;7.63;;
1300;SDS011;59099;48.806;9.160;2022-11-13T11:06:16;7.77;;;7.27;;
1300;SDS011;59099;48.806;9.160;2022-11-13T11:09:05;8.23;;;7.63;;
1300;SDS011;59099;48.806;9.160;2022-11-13T11:12:12;9.10;;;8.50;;
1300;SDS011;59099;48.806;9.160;2022-11-13T11:15:04;9.80;;;9.10;;
1300;SDS011;59099;48.806;9.160;2022-11-13T11:18:02;8.53;;;7.90;;
1300;SDS011;59099;48.806;9.160;2022-11-13T11:21:05;8.83;;;8.20;;
1300;SDS011;59099;48.806;9.160;2022-11-13T11:26:48;9.50;;;8.80;;
1300;SDS011;59099;48.806;9.160;2022-11-13T11:29:50;8.70;;;8.10;;
1300;SDS011;59099;48.806;9.160;2022-11-13T11:45:41;8.33;;;7.73;;
1300;SDS011;59099;48.806;9.160;2022-11-13T11:48:28;8.07;;;7.57;;
1300;SDS011;59099;48.806;9.160;2022-11-13T11:54:25;9.50;;;8.70;;
1300;SDS011;59099;48.806;9.160;2022-11-13T12:00:20;9.60;;;8.90;;
1300;SDS011;59099;48.806;9.160;2022-11-13T12:03:24;9.30;;;8.70;;
1300;SDS011;59099;48.806;9.160;2022-11-13T12:06:16;8.87;;;8.27;;
1300;SDS011;59099;48.806;9.160;2022-11-13T12:12:32;9.50;;;8.80;;
1300;SDS011;59099;48.806;9.160;2022-11-13T12:15:30;10.90;;;10.00;;
1300;SDS011;59099;48.806;9.160;2022-11-13T12:27:37;10.13;;;9.43;;
1300;SDS011;59099;48.806;9.160;2022-11-13T12:30:31;10.03;;;9.23;;
1300;SDS011;59099;48.806;9.160;2022-11-13T12:36:16;9.50;;;8.70;;
1300;SDS011;59099;48.806;9.160;2022-11-13T12:39:14;9.60;;;8.93;;
1300;SDS011;59099;48.806;9.160;2022-11-13T12:42:21;9.97;;;9.17;;
1300;SDS011;59099;48.806;9.160;2022-11-13T12:48:35;7.90;;;7.30;;
1300;SDS011;59099;48.806;9.160;2022-11-13T12:51:21;7.83;;;7.23;;
1300;SDS011;59099;48.806;9.160;2022-11-13T12:54:08;7.27;;;6.77;;
1300;SDS011;59099;48.806;9.160;2022-11-13T12:57:03;8.17;;;7.47;;
1300;SDS011;59099;48.806;9.160;2022-11-13T13:00:09;8.13;;;7.33;;
1300;SDS011;59099;48.806;9.160;2022-11-13T13:03:17;7.23;;;6.73;;
1300;SDS011;59099;48.806;9.160;2022-11-13T13:06:35;7.60;;;7.00;;
1300;SDS011;59099;48.806;9.160;2022-11-13T13:09:52;7.07;;;6.57;;
1300;SDS011;59099;48.806;9.160;2022-11-13T13:15:56;7.20;;;6.70;;
1300;SDS011;59099;48.806;9.160;2022-11-13T13:18:45;8.43;;;7.83;;
1300;SDS011;59099;48.806;9.160;2022-11-13T13:21:38;7.80;;;7.20;;
1300;SDS011;59099;48.806;9.160;2022-11-13T13:27:26;7.10;;;6.60;;
1300;SDS011;59099;48.806;9.160;2022-11-13T13:30:20;6.40;;;5.90;;
1300;SDS011;59099;48.806;9.160;2022-11-13T13:33:23;7.10;;;6.50;;
1300;SDS011;59099;48.806;9.160;2022-11-13T13:45:57;7.07;;;6.40;;
1300;SDS011;59099;48.806;9.160;2022-11-13T13:49:02;5.60;;;5.30;;
1300;SDS011;59099;48.806;9.160;2022-11-13T13:51:53;5.63;;;5.23;;
1300;SDS011;59099;48.806;9.160;2022-11-13T13:54:39;6.60;;;6.10;;
1300;SDS011;59099;48.806;9.160;2022-11-13T13:57:25;7.07;;;6.57;;
1300;SDS011;59099;48.806;9.160;2022-11-13T14:00:10;7.47;;;6.87;;
1300;SDS011;59099;48.806;9.160;2022-11-13T14:02:56;7.53;;;6.83;;
1300;SDS011;59099;48.806;9.160;2022-11-13T14:05:41;10.40;;;9.30;;
1300;SDS011;59099;48.806;9.160;2022-11-13T14:08:27;6.93;;;6.33;;
1300;SDS011;59099;48.806;9.160;2022-11-13T14:11:22;7.10;;;6.60;;
1300;SDS011;59099;48.806;9.160;2022-11-13T14:14:19;8.10;;;7.50;;
1300;SDS011;59099;48.806;9.160;2022-11-13T14:17:05;7.40;;;6.80;;
1300;SDS011;59099;48.806;9.160;2022-11-13T14:19:51;7.23;;;6.70;;
1300;SDS011;59099;48.806;9.160;2022-11-13T14:22:37;8.13;;;7.50;;
1300;SDS011;59099;48.806;9.160;2022-11-13T14:25:24;7.97;;;7.40;;
1300;SDS011;59099;48.806;9.160;2022-11-13T14:28:13;6.80;;;6.30;;
1300;SDS011;59099;48.806;9.160;2022-11-13T14:31:03;7.37;;;6.77;;
1300;SDS011;59099;48.806;9.160;2022-11-13T14:33:51;6.83;;;6.33;;
1300;SDS011;59099;48.806;9.160;2022-11-13T14:36:36;8.23;;;7.43;;
1300;SDS011;59099;48.806;9.160;2022-11-13T14:39:23;7.50;;;7.00;;
1300;SDS011;59099;48.806;9.160;2022-11-13T14:42:30;7.50;;;6.90;;
1300;SDS011;59099;48.806;9.160;2022-11-13T14:45:24;8.03;;;7.43;;
1300;SDS011;59099;48.806;9.160;2022-11-13T14:48:17;8.60;;;8.00;;
1300;SDS011;59099;48.806;9.160;2022-11-13T14:51:21;7.40;;;6.80;;
1300;SDS011;59099;48.806;9.160;2022-11-13T14:54:26;8.13;;;7.53;;
1300;SDS011;59099;48.806;9.160;2022-11-13T14:57:12;7.00;;;6.50;;
1300;SDS011;59099;48.806;9.160;2022-11-13T15:00:25;8.43;;;7.83;;
1300;SDS011;59099;48.806;9.160;2022-11-13T15:03:08;12.20;;;10.97;;
1300;SDS011;59099;48.806;9.160;2022-11-13T15:05:52;9.47;;;8.67;;
1300;SDS011;59099;48.806;9.160;2022-11-13T15:08:36;8.70;;;8.00;;
1300;SDS011;59099;48.806;9.160;2022-11-13T15:11:23;8.43;;;7.73;;
1300;SDS011;59099;48.806;9.160;2022-11-13T15:14:12;9.50;;;8.70;;
1300;SDS011;59099;48.806;9.160;2022-11-13T15:16:58;12.30;;;10.27;;
1300;SDS011;59099;48.806;9.160;2022-11-13T15:19:43;9.97;;;9.17;;
1300;SDS011;59099;48.806;9.160;2022-11-13T15:22:31;11.30;;;10.40;;
1300;SDS011;59099;48.806;9.160;2022-11-13T15:25:17;10.87;;;9.70;;
1300;SDS011;59099;48.806;9.160;2022-11-13T15:28:03;11.73;;;10.63;;
1300;SDS011;59099;48.806;9.160;2022-11-13T15:30:47;12.17;;;10.90;;
1300;SDS011;59099;48.806;9.160;2022-11-13T15:33:32;13.97;;;11.20;;
1300;SDS011;59099;48.806;9.160;2022-11-13T15:36:16;11.13;;;10.00;;
1300;SDS011;59099;48.806;9.160;2022-11-13T15:39:00;10.27;;;8.90;;
1300;SDS011;59099;48.806;9.160;2022-11-13T15:41:45;9.47;;;8.47;;
1300;SDS011;59099;48.806;9.160;2022-11-13T15:44:29;8.30;;;7.50;;
1300;SDS011;59099;48.806;9.160;2022-11-13T15:50:11;24.53;;;22.13;;
1300;SDS011;59099;48.806;9.160;2022-11-13T15:52:56;12.63;;;11.43;;
1300;SDS011;59099;48.806;9.160;2022-11-13T15:55:40;11.93;;;8.77;;
1300;SDS011;59099;48.806;9.160;2022-11-13T15:58:25;7.80;;;7.10;;
1300;SDS011;59099;48.806;9.160;2022-11-13T16:01:13;13.80;;;9.30;;
1300;SDS011;59099;48.806;9.160;2022-11-13T16:03:58;10.40;;;9.10;;
1300;SDS011;59099;48.806;9.160;2022-11-13T16:06:45;9.33;;;8.53;;
1300;SDS011;59099;48.806;9.160;2022-11-13T16:09:30;9.93;;;8.93;;
1300;SDS011;59099;48.806;9.160;2022-11-13T16:12:14;12.97;;;9.57;;
1300;SDS011;59099;48.806;9.160;2022-11-13T16:14:59;10.13;;;9.07;;
1300;SDS011;59099;48.806;9.160;2022-11-13T16:17:45;10.80;;;9.60;;
1300;SDS011;59099;48.806;9.160;2022-11-13T16:20:32;9.30;;;8.37;;
1300;SDS011;59099;48.806;9.160;2022-11-13T16:23:16;9.77;;;8.80;;
1300;SDS011;59099;48.806;9.160;2022-11-13T16:26:01;9.03;;;8.17;;
1300;SDS011;59099;48.806;9.160;2022-11-13T16:28:47;8.47;;;7.67;;
1300;SDS011;59099;48.806;9.160;2022-11-13T16:31:35;9.83;;;8.93;;
1300;SDS011;59099;48.806;9.160;2022-11-13T16:34:19;9.60;;;8.67;;
1300;SDS011;59099;48.806;9.160;2022-11-13T16:37:13;14.33;;;11.60;;
1300;SDS011;59099;48.806;9.160;2022-11-13T16:40:02;12.57;;;11.40;;
1300;SDS011;59099;48.806;9.160;2022-11-13T16:42:46;11.50;;;10.27;;
1300;SDS011;59099;48.806;9.160;2022-11-13T16:45:31;9.40;;;8.50;;
1300;SDS011;59099;48.806;9.160;2022-11-13T16:48:16;9.50;;;8.60;;
1300;SDS011;59099;48.806;9.160;2022-11-13T16:51:01;9.47;;;8.57;;
1300;SDS011;59099;48.806;9.160;2022-11-13T16:53:46;10.30;;;9.40;;
1300;SDS011;59099;48.806;9.160;2022-11-13T16:56:30;9.17;;;8.27;;
1300;SDS011;59099;48.806;9.160;2022-11-13T16:59:14;12.13;;;10.40;;
1300;SDS011;59099;48.806;9.160;2022-11-13T17:01:59;10.20;;;9.20;;
1300;SDS011;59099;48.806;9.160;2022-11-13T17:04:44;10.20;;;9.20;;
1300;SDS011;59099;48.806;9.160;2022-11-13T17:07:29;10.70;;;9.20;;
1300;SDS011;59099;48.806;9.160;2022-11-13T17:10:17;10.47;;;9.47;;
1300;SDS011;59099;48.806;9.160;2022-11-13T17:13:03;11.87;;;10.67;;
1300;SDS011;59099;48.806;9.160;2022-11-13T17:15:47;11.60;;;9.30;;
1300;SDS011;59099;48.806;9.160;2022-11-13T17:18:32;11.30;;;10.20;;
1300;SDS011;59099;48.806;9.160;2022-11-13T17:21:18;13.93;;;12.53;;
1300;SDS011;59099;48.806;9.160;2022-11-13T17:24:03;12.13;;;10.70;;
1300;SDS011;59099;48.806;9.160;2022-11-13T17:26:47;12.47;;;11.30;;
1300;SDS011;59099;48.806;9.160;2022-11-13T17:29:35;11.27;;;10.17;;
1300;SDS011;59099;48.806;9.160;2022-11-13T17:32:21;12.80;;;11.50;;
1300;SDS011;59099;48.806;9.160;2022-11-13T17:35:06;10.93;;;9.83;;
1300;SDS011;59099;48.806;9.160;2022-11-13T17:37:54;11.47;;;10.23;;
1300;SDS011;59099;48.806;9.160;2022-11-13T17:40:38;12.43;;;11.13;;
1300;SDS011;59099;48.806;9.160;2022-11-13T17:43:32;12.17;;;11.07;;
1300;SDS011;59099;48.806;9.160;2022-11-13T17:46:21;10.13;;;9.10;;
1300;SDS011;59099;48.806;9.160;2022-11-13T17:49:05;11.30;;;9.63;;
1300;SDS011;59099;48.806;9.160;2022-11-13T17:51:50;11.13;;;9.80;;
1300;SDS011;59099;48.806;9.160;2022-11-13T17:54:34;13.30;;;11.90;;
1300;SDS011;59099;48.806;9.160;2022-11-13T17:57:23;13.07;;;11.87;;
1300;SDS011;59099;48.806;9.160;2022-11-13T18:00:07;14.57;;;12.00;;
1300;SDS011;59099;48.806;9.160;2022-11-13T18:02:54;14.83;;;12.30;;
1300;SDS011;59099;48.806;9.160;2022-11-13T18:05:38;12.30;;;11.10;;
1300;SDS011;59099;48.806;9.160;2022-11-13T18:08:23;12.00;;;10.90;;
1300;SDS011;59099;48.806;9.160;2022-11-13T18:11:08;13.80;;;12.27;;
1300;SDS011;59099;48.806;9.160;2022-11-13T18:14:00;16.97;;;12.83;;